メインページ
METAR-TAF:

METAR-TAF

空港 :

Chautauqua County/Jamestown Airport

Jamestown, ニューヨーク, アメリカ合衆国

緯度: 42-09N, 経度: 079-16W, 海抜: 525m

現時点の気象観測

当レポートは32分前の19:56(UTC)に作成
無風
気温 -2°C
湿度 63%
気圧 1028 hPa
視程: 16.1km
高度3100ftの雲は散在している

METAR: KJHW 071956Z AUTO 00000KT 10SM SCT031 M02/M08 A3035 RMK AO2 SLP306 T10171078 FZRANO

時間: 15:28 (20:28 UTC)

予報

当レポートは2時間55分前の17:33(UTC)に作成
予報は07日の 18時(UTC)から 08日の 18時(UTC)まで有効
西/北西の風 6kt
視程: 10km
高度2500ftの千切れ雲あり
07日の 2000時(UTC)から
西/南西の風 6kt
視程: 10km
高度4000ftの雲は散在している
高度10000ftの千切れ雲あり
08日の 0100時(UTC)から
変向風 3kt
視程: 10km
高度10000ftの雲は散在している
08日の 0800時(UTC)から
の風 10kt
視程: 10km
高度20000ftの雲は散在している
08日の 1400時(UTC)から
の風 16kt、最大24ktの突風を伴う
視程: 10km
高度15000ftの千切れ雲あり

TAF: KJHW 071733Z 0718/0818 30006KT P6SM BKN025 FM072000 24006KT P6SM SCT040 BKN100 FM080100 VRB03KT P6SM SCT100 FM080800 17010KT P6SM SCT200 WS015/20040KT FM081400 18016G24KT P6SM BKN150

4,000以上の空港の気象観測と天気予報(METAR報とTAF報)

利用可能な観測所は地図上に黄色い丸と赤い丸で示す。

丸の上にカーソルを重ねると観測所名を参照できる。

次にクリックすると気象観測と天気予報を参照できる。

マップの切り替え:黒色「×」印の緑ボタンをクリックして拡大、「-」印の緑ボタンをクリックして縮小、緑色の三角印をクリックして隣りの地図に切り替え


METAR-TAF: